Time;durP1;ratioP1;P1;durP2;ratioP2;P2;SDS_P1;SDS_P2;PMS_P1;PMS_P2;Temp;Humidity;BMP_temperature;BMP_pressure;BME280_temperature;BME280_humidity;BME280_pressure;Samples;Min_cycle;Max_cycle;Signal;HPM_P1;HPM_P2
2021/04/28 00:00:32;;;;;;;8.67;5.83;;;;;;;3.08;100.00;100165.02;1843600;77;21290;-69
2021/04/28 00:03:01;;;;;;;10.17;6.20;;;;;;;3.06;100.00;100161.12;1843435;77;21310;-69
2021/04/28 00:05:30;;;;;;;10.23;6.40;;;;;;;3.05;100.00;100164.78;1843564;77;21677;-70
2021/04/28 00:07:57;;;;;;;9.43;6.30;;;;;;;3.02;100.00;100158.34;1843707;77;21128;-69
2021/04/28 00:10:29;;;;;;;9.97;5.83;;;;;;;2.98;100.00;100159.55;1843554;77;21168;-70
2021/04/28 00:12:57;;;;;;;11.57;6.03;;;;;;;2.93;100.00;100155.05;1807854;79;21341;-70
2021/04/28 00:15:28;;;;;;;10.83;6.63;;;;;;;2.87;100.00;100159.06;1807904;79;21585;-69
2021/04/28 00:17:57;;;;;;;14.33;6.43;;;;;;;2.81;100.00;100160.85;1807632;78;21309;-69
2021/04/28 00:20:25;;;;;;;10.17;6.17;;;;;;;2.76;100.00;100156.34;1807757;78;21111;-71
2021/04/28 00:22:52;;;;;;;11.07;5.70;;;;;;;2.70;100.00;100163.02;1807977;79;21664;-71
2021/04/28 00:25:23;;;;;;;10.93;5.83;;;;;;;2.65;100.00;100158.02;1807742;79;21285;-72
2021/04/28 00:27:50;;;;;;;10.23;5.60;;;;;;;2.62;100.00;100157.39;1807778;79;21759;-70
2021/04/28 00:30:20;;;;;;;9.37;6.07;;;;;;;2.57;100.00;100153.77;1807714;78;21269;-69
2021/04/28 00:32:49;;;;;;;10.17;5.80;;;;;;;2.53;100.00;100150.94;1807807;79;21727;-70
2021/04/28 00:35:18;;;;;;;8.90;5.60;;;;;;;2.49;100.00;100157.48;1807786;78;21309;-70
2021/04/28 00:37:46;;;;;;;10.63;6.47;;;;;;;2.46;100.00;100157.71;1807730;78;21758;-69
2021/04/28 00:40:26;;;;;;;10.90;5.77;;;;;;;2.45;100.00;100161.37;1807711;79;21285;-71
2021/04/28 00:42:54;;;;;;;9.67;6.20;;;;;;;2.41;100.00;100162.08;1781871;79;21732;-71
2021/04/28 00:45:24;;;;;;;11.30;6.20;;;;;;;2.36;100.00;100166.91;1807764;79;21136;-70
2021/04/28 00:47:56;;;;;;;11.23;5.73;;;;;;;2.34;100.00;100165.31;1807359;79;21261;-70
2021/04/28 00:50:29;;;;;;;9.93;5.45;;;;;;;2.32;100.00;100160.57;1800099;79;21139;-70
2021/04/28 00:53:04;;;;;;;10.27;6.00;;;;;;;2.31;100.00;100165.56;1814885;77;22571;-70
2021/04/28 00:55:33;;;;;;;11.17;5.97;;;;;;;2.24;100.00;100167.83;1755781;79;21330;-69
2021/04/28 00:58:01;;;;;;;8.97;5.80;;;;;;;2.22;100.00;100168.44;1786554;80;21266;-70
2021/04/28 01:00:29;;;;;;;8.97;6.00;;;;;;;2.20;100.00;100167.20;1786465;80;21306;-70
2021/04/28 01:02:57;;;;;;;12.30;6.37;;;;;;;2.18;100.00;100162.47;1786539;80;21180;-69
2021/04/28 01:05:25;;;;;;;11.17;6.10;;;;;;;2.17;100.00;100168.77;1786516;80;21141;-70
2021/04/28 01:07:54;;;;;;;10.13;5.90;;;;;;;2.14;100.00;100167.65;1786305;80;21145;-70
2021/04/28 01:10:34;;;;;;;11.30;6.10;;;;;;;2.13;100.00;100170.45;1786568;80;21129;-70
2021/04/28 01:13:04;;;;;;;10.93;6.70;;;;;;;2.13;100.00;100167.30;1786540;80;21306;-70
2021/04/28 01:15:34;;;;;;;10.63;6.53;;;;;;;2.10;100.00;100174.19;1755960;80;21144;-70
2021/04/28 01:18:09;;;;;;;10.53;6.00;;;;;;;2.09;100.00;100180.50;1781970;80;21578;-70
2021/04/28 01:20:39;;;;;;;12.47;6.10;;;;;;;2.07;100.00;100175.28;1786518;80;21181;-70
2021/04/28 01:23:08;;;;;;;19.43;7.73;;;;;;;2.08;100.00;100176.12;1786575;80;21330;-70
2021/04/28 01:25:37;;;;;;;21.27;7.90;;;;;;;2.06;100.00;100178.89;1786626;79;21306;-69
2021/04/28 01:28:12;;;;;;;16.60;7.20;;;;;;;2.03;100.00;100180.94;1786502;80;21598;-70
2021/04/28 01:30:47;;;;;;;15.13;7.10;;;;;;;1.99;100.00;100184.31;1786459;80;21133;-69
2021/04/28 01:33:19;;;;;;;19.33;7.83;;;;;;;1.94;100.00;100188.29;1786788;79;21128;-70
2021/04/28 01:35:49;;;;;;;19.63;7.50;;;;;;;1.88;100.00;100193.10;1786545;80;21674;-69
2021/04/28 01:38:17;;;;;;;22.13;9.17;;;;;;;1.84;100.00;100195.63;1756078;80;21136;-69
2021/04/28 01:40:45;;;;;;;24.83;9.83;;;;;;;1.78;100.00;100205.39;1786506;80;21686;-70
2021/04/28 01:43:14;;;;;;;23.50;10.57;;;;;;;1.71;100.00;100204.97;1786428;80;21332;-71
2021/04/28 01:45:50;;;;;;;24.50;10.37;;;;;;;1.65;100.00;100209.42;1786466;80;21141;-70
2021/04/28 01:48:18;;;;;;;22.82;10.25;;;;;;;1.60;100.00;100205.39;1786915;80;21682;-70
2021/04/28 01:50:46;;;;;;;21.40;10.00;;;;;;;1.58;100.00;100215.31;1756689;80;21744;-70
2021/04/28 01:53:19;;;;;;;20.90;9.57;;;;;;;1.58;100.00;100217.98;1787150;80;21125;-70
2021/04/28 01:55:50;;;;;;;19.53;8.73;;;;;;;1.57;100.00;100217.11;1787338;80;21262;-69
2021/04/28 01:58:36;;;;;;;13.60;7.63;;;;;;;1.57;100.00;100214.44;1760449;80;21295;-69
2021/04/28 02:01:06;;;;;;;15.40;7.33;;;;;;;1.60;100.00;100214.72;1759780;80;21265;-69
2021/04/28 02:03:38;;;;;;;14.30;7.57;;;;;;;1.64;100.00;100222.37;1786956;80;21268;-70
2021/04/28 02:06:06;;;;;;;11.67;6.87;;;;;;;1.70;100.00;100219.77;1787019;80;21617;-70
2021/04/28 02:08:35;;;;;;;10.27;6.80;;;;;;;1.77;100.00;100221.49;1786690;80;21318;-70
2021/04/28 02:11:04;;;;;;;13.43;7.10;;;;;;;1.83;100.00;100239.24;1786690;80;21623;-69
2021/04/28 02:13:37;;;;;;;12.70;7.23;;;;;;;1.88;100.00;100235.77;1786689;80;21311;-69
2021/04/28 02:16:21;;;;;;;16.50;8.50;;;;;;;1.95;100.00;100235.31;1795921;77;28221;-69
2021/04/28 02:18:49;;;;;;;16.50;7.33;;;;;;;1.98;100.00;100239.09;1773004;80;21295;-69
2021/04/28 02:21:17;;;;;;;14.67;7.13;;;;;;;2.07;100.00;100243.75;1772822;81;21590;-69
2021/04/28 02:23:49;;;;;;;13.10;7.00;;;;;;;2.07;100.00;100245.97;1769700;81;21552;-70
2021/04/28 02:26:19;;;;;;;15.17;7.80;;;;;;;2.03;100.00;100243.13;1726207;81;21129;-69
2021/04/28 02:28:47;;;;;;;17.97;9.00;;;;;;;1.98;100.00;100243.09;1772795;80;21274;-69
2021/04/28 02:31:14;;;;;;;19.60;9.13;;;;;;;1.93;100.00;100252.78;1772861;81;21157;-69
2021/04/28 02:33:43;;;;;;;21.17;9.43;;;;;;;1.87;100.00;100254.05;1772784;81;21308;-69
2021/04/28 02:36:35;;;;;;;20.83;9.17;;;;;;;1.80;100.00;100250.13;1769717;81;21141;-69
2021/04/28 02:39:29;;;;;;;21.70;8.77;;;;;;;1.70;100.00;100259.27;1724935;83;21750;-71
2021/04/28 02:41:57;;;;;;;24.30;12.17;;;;;;;1.56;100.00;100267.85;1712152;84;21356;-69
2021/04/28 02:44:26;;;;;;;21.90;11.83;;;;;;;1.47;100.00;100272.01;1724785;82;21161;-70
2021/04/28 02:46:56;;;;;;;25.47;13.10;;;;;;;1.39;100.00;100274.37;1707195;84;21178;-69
2021/04/28 02:49:25;;;;;;;24.43;12.63;;;;;;;1.37;100.00;100276.30;1725036;83;21297;-69
2021/04/28 02:51:58;;;;;;;30.25;17.52;;;;;;;1.37;100.00;100271.81;1708579;84;21179;-70
2021/04/28 02:54:40;;;;;;;33.17;18.57;;;;;;;1.43;100.00;100278.03;1811542;77;22663;-69
2021/04/28 02:57:10;;;;;;;46.47;24.90;;;;;;;1.43;100.00;100280.70;1773027;80;21736;-69
2021/04/28 02:59:38;;;;;;;50.97;26.87;;;;;;;1.46;100.00;100280.49;1772996;81;21272;-69
2021/04/28 03:02:07;;;;;;;47.13;24.70;;;;;;;1.50;100.00;100287.80;1772718;81;21251;-69
2021/04/28 03:04:41;;;;;;;42.37;25.60;;;;;;;1.57;100.00;100286.89;1772649;80;21710;-68
2021/04/28 03:07:17;;;;;;;44.37;25.73;;;;;;;1.63;100.00;100292.66;1772674;81;21098;-69
2021/04/28 03:09:46;;;;;;;39.50;24.00;;;;;;;1.68;100.00;100291.86;1772625;80;21272;-68
2021/04/28 03:12:15;;;;;;;34.03;21.10;;;;;;;1.74;100.00;100293.23;1772793;81;21320;-69
2021/04/28 03:14:45;;;;;;;29.17;17.33;;;;;;;1.81;100.00;100303.83;1769433;81;21141;-69
2021/04/28 03:17:13;;;;;;;24.97;14.40;;;;;;;1.87;100.00;100311.38;1772834;81;21750;-69
2021/04/28 03:19:41;;;;;;;21.07;12.13;;;;;;;1.91;100.00;100309.35;1772785;81;21398;-69
2021/04/28 03:22:09;;;;;;;17.73;11.17;;;;;;;1.95;100.00;100319.31;1772822;80;21307;-68
2021/04/28 03:24:36;;;;;;;17.10;10.47;;;;;;;1.96;100.00;100323.22;1751574;81;21136;-69
2021/04/28 03:27:12;;;;;;;16.37;9.60;;;;;;;1.98;100.00;100325.29;1772825;81;21145;-69
2021/04/28 03:29:44;;;;;;;15.60;9.00;;;;;;;2.00;100.00;100338.52;1772805;81;21169;-69
2021/04/28 03:32:12;;;;;;;13.83;8.37;;;;;;;2.02;100.00;100336.59;1772883;81;21142;-69
2021/04/28 03:34:43;;;;;;;14.13;8.93;;;;;;;2.03;100.00;100342.31;1772884;81;21272;-69
2021/04/28 03:37:11;;;;;;;13.53;8.73;;;;;;;2.05;100.00;100350.59;1772785;81;21161;-70
2021/04/28 03:39:42;;;;;;;13.73;8.07;;;;;;;2.06;100.00;100348.77;1769567;81;21267;-69
2021/04/28 03:42:10;;;;;;;11.63;7.93;;;;;;;2.09;100.00;100355.23;1772742;80;21575;-68
2021/04/28 03:44:38;;;;;;;14.60;8.73;;;;;;;2.16;100.00;100355.63;1772706;79;21359;-68
2021/04/28 03:47:07;;;;;;;13.50;8.33;;;;;;;2.18;100.00;100362.57;1772782;80;21536;-69
2021/04/28 03:49:38;;;;;;;13.43;8.57;;;;;;;2.21;100.00;100369.03;1772726;81;21152;-70
2021/04/28 03:52:06;;;;;;;14.97;8.90;;;;;;;2.24;100.00;100366.13;1772710;81;21146;-69
2021/04/28 03:54:53;;;;;;;15.63;9.20;;;;;;;2.28;100.00;100364.09;1772783;80;21121;-70
2021/04/28 03:57:20;;;;;;;14.53;9.37;;;;;;;2.34;100.00;100365.45;1772827;81;21134;-68
2021/04/28 03:59:48;;;;;;;15.00;8.67;;;;;;;2.38;100.00;100363.80;1772791;80;21300;-69
2021/04/28 04:02:17;;;;;;;13.33;8.63;;;;;;;2.43;100.00;100367.00;1772687;81;21145;-69
2021/04/28 04:05:05;;;;;;;14.23;8.50;;;;;;;2.49;100.00;100363.52;1772362;81;21136;-69
2021/04/28 04:07:50;;;;;;;15.53;8.70;;;;;;;2.56;100.00;100368.28;1772116;81;21142;-69
2021/04/28 04:10:25;;;;;;;12.40;8.10;;;;;;;2.64;100.00;100365.92;1750957;82;21295;-69
2021/04/28 04:12:54;;;;;;;14.27;8.03;;;;;;;2.71;100.00;100362.33;1684397;85;21358;-69
2021/04/28 04:15:22;;;;;;;13.57;8.77;;;;;;;2.76;100.00;100357.96;1684306;85;21193;-70
2021/04/28 04:17:51;;;;;;;13.67;7.93;;;;;;;2.79;100.00;100363.09;1684572;85;21303;-72
2021/04/28 04:20:34;;;;;;;13.03;8.43;;;;;;;2.85;100.00;100356.81;1814726;77;23510;-69
2021/04/28 04:23:07;;;;;;;;;;;;;;;2.88;100.00;100356.21;1784552;80;21279;-71
2021/04/28 04:25:55;;;;;;;13.47;8.57;;;;;;;2.93;100.00;100365.58;1738072;82;20133;-70
2021/04/28 04:28:24;;;;;;;14.80;9.10;;;;;;;3.01;100.00;100368.55;1734186;82;21171;-70
2021/04/28 04:31:03;;;;;;;14.77;8.57;;;;;;;3.10;100.00;100370.14;1734314;81;21612;-71
2021/04/28 04:33:39;;;;;;;11.00;7.55;;;;;;;3.23;100.00;100369.11;1836784;77;28055;-71
2021/04/28 04:36:26;;;;;;;9.30;7.20;;;;;;;3.36;100.00;100367.69;1822445;79;21361;-71
2021/04/28 04:39:13;;;;;;;14.13;8.07;;;;;;;3.55;100.00;100372.48;1705429;84;21142;-70
2021/04/28 04:41:50;;;;;;;12.50;8.40;;;;;;;3.69;100.00;100382.63;1839395;77;38089;-71
2021/04/28 04:44:22;;;;;;;11.43;7.15;;;;;;;3.76;100.00;100383.85;1822855;78;21611;-69
2021/04/28 04:46:58;;;;;;;12.23;7.50;;;;;;;3.89;100.00;100383.74;1827732;78;21149;-70
2021/04/28 04:49:26;;;;;;;13.70;8.63;;;;;;;3.98;100.00;100387.03;1827654;78;21297;-70
2021/04/28 04:51:54;;;;;;;11.47;7.73;;;;;;;4.11;100.00;100386.45;1827775;78;21128;-70
2021/04/28 04:54:22;;;;;;;11.90;6.80;;;;;;;4.27;100.00;100394.61;1823416;78;21267;-71
2021/04/28 04:56:50;;;;;;;11.70;7.20;;;;;;;4.41;100.00;100404.20;1822309;78;21145;-71
2021/04/28 04:59:19;;;;;;;13.27;7.97;;;;;;;4.50;100.00;100400.31;1800968;78;21176;-71
2021/04/28 05:01:47;;;;;;;12.53;7.90;;;;;;;4.63;100.00;100400.66;1802489;79;21528;-72
2021/04/28 05:04:15;;;;;;;11.00;7.50;;;;;;;4.72;100.00;100400.75;1820468;78;21279;-72
2021/04/28 05:06:43;;;;;;;11.20;7.00;;;;;;;4.86;100.00;100411.69;1818231;79;21260;-70
2021/04/28 05:09:11;;;;;;;11.47;7.13;;;;;;;5.03;100.00;100413.00;1746257;82;21347;-71
2021/04/28 05:11:39;;;;;;;14.77;7.67;;;;;;;5.14;100.00;100416.97;1776277;80;21172;-72
2021/04/28 05:14:07;;;;;;;11.53;7.40;;;;;;;5.23;100.00;100417.20;1745320;82;21636;-72
2021/04/28 05:16:35;;;;;;;11.77;7.10;;;;;;;5.31;100.00;100418.27;1745538;82;21354;-73
2021/04/28 05:19:03;;;;;;;13.80;8.07;;;;;;;5.45;100.00;100410.88;1745888;82;21315;-74
2021/04/28 05:21:36;;;;;;;11.90;7.60;;;;;;;5.62;100.00;100406.29;1754523;81;21311;-73
2021/04/28 05:24:15;;;;;;;13.83;7.50;;;;;;;5.78;100.00;100409.02;1753891;81;21132;-75
2021/04/28 05:26:54;;;;;;;10.27;7.13;;;;;;;5.95;100.00;100407.09;1739635;81;21312;-78
2021/04/28 05:29:21;;;;;;;14.20;7.47;;;;;;;6.13;100.00;100408.70;1750656;79;21302;-72
2021/04/28 05:31:50;;;;;;;16.10;9.43;;;;;;;6.28;100.00;100410.52;1754616;82;21275;-71
2021/04/28 05:34:18;;;;;;;12.53;8.30;;;;;;;6.44;100.00;100406.00;1754623;81;21157;-73
2021/04/28 05:36:47;;;;;;;16.37;9.17;;;;;;;6.64;100.00;100402.41;1753731;81;21136;-71
2021/04/28 05:39:15;;;;;;;25.47;16.03;;;;;;;6.74;100.00;100401.07;1765362;81;21309;-73
2021/04/28 05:41:43;;;;;;;15.63;9.27;;;;;;;6.74;100.00;100396.20;1749767;81;21271;-74
2021/04/28 05:44:11;;;;;;;14.90;8.70;;;;;;;6.76;100.00;100403.63;1806466;79;21317;-73
2021/04/28 05:46:39;;;;;;;15.20;8.40;;;;;;;6.74;100.00;100401.07;1804302;79;21287;-72
2021/04/28 05:49:07;;;;;;;15.47;7.67;;;;;;;6.75;100.00;100405.98;1803140;79;21268;-74
2021/04/28 05:51:35;;;;;;;12.87;7.87;;;;;;;6.74;100.00;100398.38;1804592;79;21257;-73
2021/04/28 05:54:04;;;;;;;13.00;7.97;;;;;;;6.73;100.00;100401.20;1782430;79;21608;-70
2021/04/28 05:56:32;;;;;;;14.70;7.40;;;;;;;6.73;100.00;100410.14;1802163;79;21306;-73
2021/04/28 05:59:00;;;;;;;14.03;7.70;;;;;;;6.69;100.00;100403.82;1803052;78;21280;-70
2021/04/28 06:01:28;;;;;;;15.03;7.83;;;;;;;6.59;100.00;100406.49;1799855;79;21382;-70
2021/04/28 06:03:56;;;;;;;14.23;7.33;;;;;;;6.54;100.00;100400.67;1818500;79;21345;-73
2021/04/28 06:06:25;;;;;;;11.57;7.00;;;;;;;6.52;100.00;100403.49;1818618;79;21134;-75
2021/04/28 06:08:53;;;;;;;13.67;8.00;;;;;;;6.51;100.00;100409.84;1818710;79;21328;-70
2021/04/28 06:11:21;;;;;;;17.37;8.20;;;;;;;6.52;100.00;100406.17;1797822;79;21275;-71
2021/04/28 06:13:49;;;;;;;14.03;7.73;;;;;;;6.53;100.00;100402.48;1722187;83;21299;-70
2021/04/28 06:16:17;;;;;;;16.53;8.93;;;;;;;6.57;100.00;100412.00;1786246;80;21322;-72
2021/04/28 06:18:46;;;;;;;13.30;7.77;;;;;;;6.67;100.00;100409.83;1785688;80;21200;-72
2021/04/28 06:21:14;;;;;;;13.10;7.70;;;;;;;6.80;100.00;100412.63;1730560;82;21331;-73
2021/04/28 06:23:43;;;;;;;12.93;8.10;;;;;;;7.00;100.00;100412.17;1799959;77;21145;-73
2021/04/28 06:26:11;;;;;;;14.40;8.53;;;;;;;7.27;100.00;100413.84;1740449;82;21786;-72
2021/04/28 06:28:39;;;;;;;12.73;7.57;;;;;;;7.53;100.00;100410.94;1799807;78;21122;-72
2021/04/28 06:31:07;;;;;;;16.57;8.23;;;;;;;7.68;100.00;100407.30;1803207;79;21137;-74
2021/04/28 06:33:36;;;;;;;13.97;8.30;;;;;;;7.92;100.00;100410.89;1802384;77;21309;-72
2021/04/28 06:36:05;;;;;;;26.07;15.27;;;;;;;8.15;100.00;100414.09;1823770;77;21623;-71
2021/04/28 06:38:39;;;;;;;17.17;7.73;;;;;;;8.33;100.00;100416.02;1741424;80;21287;-72
2021/04/28 06:41:10;;;;;;;15.80;8.03;;;;;;;8.47;100.00;100422.81;1784054;79;21247;-71
2021/04/28 06:43:38;;;;;;;13.27;8.20;;;;;;;8.58;100.00;100417.73;1812014;77;21177;-71
2021/04/28 06:46:08;;;;;;;14.87;7.47;;;;;;;8.51;100.00;100422.86;1756188;81;21508;-72
2021/04/28 06:48:36;;;;;;;15.10;8.80;;;;;;;8.38;100.00;100421.82;1809950;77;21130;-74
2021/04/28 06:51:04;;;;;;;16.27;7.70;;;;;;;8.44;100.00;100429.84;1743278;81;21148;-71
2021/04/28 06:53:33;;;;;;;18.07;8.90;;;;;;;8.50;100.00;100432.80;1810519;77;21308;-72
2021/04/28 06:56:01;;;;;;;17.47;8.07;;;;;;;8.45;100.00;100432.90;1821243;77;21551;-73
2021/04/28 06:58:32;;;;;;;16.37;8.13;;;;;;;8.42;100.00;100431.80;1804702;77;21264;-70
2021/04/28 07:00:59;;;;;;;13.13;7.43;;;;;;;8.47;100.00;100434.44;1807589;77;21271;-71
2021/04/28 07:03:29;;;;;;;15.33;8.17;;;;;;;8.51;100.00;100433.13;1742315;80;21141;-72
2021/04/28 07:05:57;;;;;;;15.40;7.77;;;;;;;8.49;100.00;100441.87;1807724;79;21286;-71
2021/04/28 07:08:25;;;;;;;14.80;7.80;;;;;;;8.43;100.00;100441.60;1809488;78;21165;-71
2021/04/28 07:10:54;;;;;;;13.53;7.73;;;;;;;8.47;100.00;100448.41;1804813;79;21251;-72
2021/04/28 07:13:22;;;;;;;15.63;8.50;;;;;;;8.71;100.00;100451.44;1740073;81;21255;-74
2021/04/28 07:15:51;;;;;;;15.83;9.13;;;;;;;9.01;100.00;100448.58;1815032;77;21094;-72
2021/04/28 07:18:21;;;;;;;14.63;8.80;;;;;;;9.19;100.00;100452.17;1805229;77;21117;-72
2021/04/28 07:20:50;;;;;;;12.73;8.47;;;;;;;9.32;100.00;100455.84;1806903;79;21161;-70
2021/04/28 07:23:18;;;;;;;14.00;7.90;;;;;;;9.32;100.00;100449.09;1805736;78;21166;-72
2021/04/28 07:25:46;;;;;;;23.47;11.03;;;;;;;9.35;100.00;100442.05;1813942;77;21187;-72
2021/04/28 07:28:14;;;;;;;13.13;7.30;;;;;;;9.39;100.00;100451.52;1814217;77;21537;-73
2021/04/28 07:30:42;;;;;;;13.40;7.20;;;;;;;9.64;100.00;100449.06;1814103;77;21649;-73
2021/04/28 07:33:10;;;;;;;75.65;45.85;;;;;;;9.96;100.00;100441.72;1740836;81;21277;-72
2021/04/28 07:35:40;;;;;;;20.30;11.35;;;;;;;10.15;100.00;100441.20;1790190;79;21284;-72
2021/04/28 07:38:08;;;;;;;16.60;8.30;;;;;;;10.37;100.00;100443.38;1821593;77;21226;-73
2021/04/28 07:40:36;;;;;;;15.72;7.15;;;;;;;10.68;100.00;100436.60;1766452;80;21421;-72
2021/04/28 07:43:04;;;;;;;11.15;6.47;;;;;;;11.19;100.00;100446.45;1815361;77;21559;-75
2021/04/28 07:45:34;;;;;;;11.12;5.67;;;;;;;11.68;100.00;100440.77;1748867;80;21144;-71
2021/04/28 07:48:07;;;;;;;15.85;6.15;;;;;;;11.87;100.00;100440.42;1742879;80;21288;-70
2021/04/28 07:50:33;;;;;;;18.02;7.08;;;;;;;12.04;100.00;100434.53;1756919;80;21323;-72
2021/04/28 07:53:02;;;;;;;15.68;5.85;;;;;;;12.25;100.00;100430.42;1818991;77;21117;-70
2021/04/28 07:55:34;;;;;;;12.18;6.30;;;;;;;12.54;100.00;100439.34;1820627;79;21279;-73
2021/04/28 07:58:06;;;;;;;12.45;5.28;;;;;;;12.70;100.00;100432.50;1802092;79;21286;-72
2021/04/28 08:00:34;;;;;;;13.20;5.00;;;;;;;12.71;100.00;100436.92;1751565;82;21205;-73
2021/04/28 08:03:04;;;;;;;12.80;4.75;;;;;;;12.72;100.00;100429.09;1804103;77;21588;-73
2021/04/28 08:05:33;;;;;;;11.25;5.45;;;;;;;12.68;100.00;100430.48;1767359;79;21156;-73
2021/04/28 08:08:01;;;;;;;13.00;5.12;;;;;;;12.75;100.00;100436.05;1761188;80;21291;-72
2021/04/28 08:10:29;;;;;;;12.43;5.20;;;;;;;12.77;100.00;100428.58;1820161;77;21528;-75
2021/04/28 08:12:58;;;;;;;14.13;5.55;;;;;;;12.87;100.00;100429.22;1824175;77;21556;-73
2021/04/28 08:15:26;;;;;;;12.10;4.90;;;;;;;12.98;100.00;100431.18;1815695;78;21101;-75
2021/04/28 08:17:54;;;;;;;13.18;5.80;;;;;;;13.04;100.00;100431.33;1747402;80;21327;-74
2021/04/28 08:20:24;;;;;;;7.33;4.62;;;;;;;13.02;100.00;100442.05;1736304;81;21165;-76
2021/04/28 08:22:52;;;;;;;10.18;5.78;;;;;;;12.97;100.00;100434.94;1747424;80;21729;-77
2021/04/28 08:25:21;;;;;;;12.00;5.58;;;;;;;12.94;100.00;100436.13;1774277;80;21286;-71
2021/04/28 08:27:50;;;;;;;10.93;5.17;;;;;;;12.89;100.00;100438.03;1808561;77;21122;-73
2021/04/28 08:30:20;;;;;;;18.27;5.83;;;;;;;12.93;100.00;100434.97;1813510;77;21651;-74
2021/04/28 08:32:50;;;;;;;16.27;6.40;;;;;;;13.00;100.00;100439.50;1808252;78;21574;-75
2021/04/28 08:35:20;;;;;;;7.80;4.78;;;;;;;13.15;100.00;100432.79;1801178;78;21489;-76
2021/04/28 08:37:49;;;;;;;7.95;4.92;;;;;;;13.13;100.00;100434.84;1813317;77;21264;-74
2021/04/28 08:40:18;;;;;;;12.25;5.55;;;;;;;13.18;100.00;100432.44;1807907;77;21316;-74
2021/04/28 08:42:48;;;;;;;17.25;8.58;;;;;;;13.25;100.00;100427.15;1797405;77;21173;-73
2021/04/28 08:45:17;;;;;;;13.93;6.03;;;;;;;13.44;100.00;100427.23;1800459;79;21284;-74
2021/04/28 08:47:45;;;;;;;19.25;10.68;;;;;;;13.50;99.20;100428.38;1820499;77;21154;-73
2021/04/28 08:50:14;;;;;;;13.80;6.92;;;;;;;13.36;100.00;100427.28;1809651;77;21157;-77
2021/04/28 08:52:42;;;;;;;14.25;6.20;;;;;;;13.45;100.00;100439.78;1829115;77;21286;-74
2021/04/28 08:55:11;;;;;;;9.63;5.28;;;;;;;13.58;100.00;100433.73;1803269;77;21138;-75
2021/04/28 08:57:41;;;;;;;13.05;5.03;;;;;;;13.61;100.00;100432.86;1717725;82;21183;-76
2021/04/28 09:00:12;;;;;;;21.82;9.40;;;;;;;13.73;100.00;100426.49;1759305;77;21274;-78
2021/04/28 09:03:00;;;;;;;9.55;5.12;;;;;;;13.97;100.00;100423.22;1806554;77;21267;-76
2021/04/28 09:05:28;;;;;;;10.95;4.62;;;;;;;14.06;100.00;100434.38;1787018;80;21137;-72
2021/04/28 09:07:57;;;;;;;22.07;11.43;;;;;;;13.91;89.43;100432.12;1730693;81;21611;-76
2021/04/28 09:10:29;;;;;;;20.65;8.53;;;;;;;13.79;96.49;100431.22;1744076;80;21122;-73
2021/04/28 09:13:03;;;;;;;13.47;5.93;;;;;;;13.94;100.00;100425.81;1781385;80;21278;-75
2021/04/28 09:15:42;;;;;;;11.68;5.30;;;;;;;14.19;100.00;100423.70;1718602;83;21785;-73
2021/04/28 09:18:20;;;;;;;9.60;5.50;;;;;;;14.43;87.06;100417.69;1803265;77;22831;-75
2021/04/28 09:21:07;;;;;;;8.43;4.12;;;;;;;14.36;82.48;100421.66;1761525;80;21141;-74
2021/04/28 09:23:54;;;;;;;10.38;4.83;;;;;;;14.36;92.68;100423.02;1752640;80;21172;-73
2021/04/28 09:26:41;;;;;;;9.45;4.65;;;;;;;14.65;85.11;100416.45;1736001;81;21141;-73
2021/04/28 09:29:30;;;;;;;13.20;5.00;;;;;;;14.69;81.08;100422.66;1748018;81;21130;-73
2021/04/28 09:32:04;;;;;;;6.35;4.22;;;;;;;14.54;77.03;100425.89;1745133;81;21319;-74
2021/04/28 09:34:41;;;;;;;9.10;4.87;;;;;;;14.26;78.37;100421.08;1745965;81;21685;-71
2021/04/28 09:37:15;;;;;;;15.28;5.85;;;;;;;14.11;78.37;100415.64;1757877;81;21312;-73
2021/04/28 09:39:48;;;;;;;18.25;9.13;;;;;;;14.25;86.14;100411.22;1758026;81;21271;-72
2021/04/28 09:45:54;;;;;;;7.70;4.40;;;;;;;14.55;84.00;100416.68;1746569;81;21259;-74
2021/04/28 09:48:25;;;;;;;10.45;4.72;;;;;;;14.69;71.14;100418.58;1733361;81;21291;-72
2021/04/28 09:51:09;;;;;;;21.87;10.85;;;;;;;14.69;71.14;100418.58;1757990;81;21101;-74
2021/04/28 09:53:40;;;;;;;12.60;6.65;;;;;;;14.57;64.80;100422.28;1682109;82;21152;-72
2021/04/28 09:56:17;;;;;;;16.10;8.10;;;;;;;14.31;59.52;100421.90;1702420;81;21498;-71
2021/04/28 09:58:58;;;;;;;12.60;5.55;;;;;;;14.03;66.45;100421.14;1745420;81;21138;-74
2021/04/28 10:01:39;;;;;;;12.05;5.87;;;;;;;14.13;70.40;100423.09;1731446;81;21729;-74
2021/04/28 10:04:09;;;;;;;14.28;5.00;;;;;;;14.52;80.08;100416.55;1706898;83;21558;-75
2021/04/28 10:06:49;;;;;;;13.62;4.20;;;;;;;15.03;68.21;100413.56;1709147;83;21300;-73
2021/04/28 10:09:34;;;;;;;6.40;3.40;;;;;;;15.45;61.23;100421.48;1737158;82;21772;-73
2021/04/28 10:12:09;;;;;;;6.65;3.72;;;;;;;15.64;54.36;100417.27;1735877;81;21150;-73
2021/04/28 10:14:37;;;;;;;6.80;3.65;;;;;;;15.65;57.02;100417.58;1740449;81;21133;-74
2021/04/28 10:17:08;;;;;;;10.45;5.28;;;;;;;15.65;57.02;100417.58;1751755;81;21176;-72
2021/04/28 10:19:38;;;;;;;6.30;3.30;;;;;;;15.87;57.03;100419.82;1739604;82;21387;-72
2021/04/28 10:22:17;;;;;;;4.72;3.35;;;;;;;16.05;44.69;100416.61;1740226;82;21726;-72
2021/04/28 10:24:49;;;;;;;7.60;3.85;;;;;;;16.02;42.46;100403.36;1685954;84;21297;-72
2021/04/28 10:27:18;;;;;;;17.92;7.35;;;;;;;16.03;53.19;100407.78;1678158;84;21314;-73
2021/04/28 10:29:49;;;;;;;5.47;3.80;;;;;;;16.20;51.47;100394.17;1670447;85;21368;-72
2021/04/28 10:32:24;;;;;;;6.50;3.65;;;;;;;16.33;49.29;100405.69;1807686;77;22800;-75
2021/04/28 10:35:08;;;;;;;6.12;3.95;;;;;;;16.19;40.97;100408.01;1773695;80;21258;-75
2021/04/28 10:37:37;;;;;;;11.40;4.50;;;;;;;15.98;43.72;100411.09;1759743;80;21172;-74
2021/04/28 10:40:13;;;;;;;7.45;3.90;;;;;;;15.81;52.24;100411.91;1765311;80;21270;-71
2021/04/28 10:42:48;;;;;;;7.25;3.80;;;;;;;15.72;55.41;100404.36;1802262;78;23476;-70
2021/04/28 10:45:28;;;;;;;5.20;3.58;;;;;;;15.71;57.17;100400.45;1751112;80;21692;-74
2021/04/28 10:47:56;;;;;;;9.00;4.87;;;;;;;15.90;58.77;100394.36;1743303;81;21129;-76
2021/04/28 10:50:45;;;;;;;14.85;6.60;;;;;;;16.19;57.00;100391.64;1753926;81;21260;-71
2021/04/28 10:53:20;;;;;;;9.18;4.05;;;;;;;16.38;58.35;100390.92;1744902;81;21702;-73
2021/04/28 10:56:01;;;;;;;9.60;4.00;;;;;;;16.48;55.78;100388.68;1754011;81;21252;-71
2021/04/28 10:58:35;;;;;;;5.72;3.85;;;;;;;16.45;52.58;100395.03;1750342;81;21212;-76
2021/04/28 11:01:12;;;;;;;9.00;4.37;;;;;;;16.31;55.23;100396.33;1742329;81;21168;-73
2021/04/28 11:03:48;;;;;;;8.23;3.85;;;;;;;16.16;52.19;100395.59;1748005;81;21799;-72
2021/04/28 11:09:06;;;;;;;10.35;4.03;;;;;;;16.23;53.70;100395.64;1663660;85;21175;-72
2021/04/28 11:11:41;;;;;;;9.75;4.25;;;;;;;16.27;57.50;100392.33;1658397;85;21247;-74
2021/04/28 11:14:20;;;;;;;8.73;4.30;;;;;;;16.38;54.30;100400.97;1670023;85;21152;-73
2021/04/28 11:17:17;;;;;;;14.40;5.33;;;;;;;16.44;57.06;100390.64;1855262;77;22962;-77
2021/04/28 11:19:51;;;;;;;14.33;6.10;;;;;;;16.62;57.19;100400.48;1784092;80;21195;-77
2021/04/28 11:22:23;;;;;;;12.53;5.40;;;;;;;16.96;59.14;100397.95;1780227;80;21174;-76
2021/04/28 11:25:15;;;;;;;11.12;4.47;;;;;;;16.88;48.47;100392.15;1773677;80;21281;-77
2021/04/28 11:28:07;;;;;;;11.03;4.42;;;;;;;16.76;49.88;100391.02;1777693;80;21550;-77
2021/04/28 11:30:48;;;;;;;12.88;4.17;;;;;;;16.86;51.78;100391.52;1778944;80;21208;-72
2021/04/28 11:33:31;;;;;;;11.33;4.30;;;;;;;17.11;52.53;100381.41;1816047;77;28345;-72
2021/04/28 11:36:07;;;;;;;23.90;10.00;;;;;;;17.27;51.14;100382.39;1795326;80;21153;-71
2021/04/28 11:38:39;;;;;;;16.52;6.28;;;;;;;17.36;52.58;100381.14;1817207;78;21248;-70
2021/04/28 11:41:16;;;;;;;11.00;4.83;;;;;;;16.88;43.57;100383.42;1755497;81;21156;-73
2021/04/28 11:43:57;;;;;;;12.28;5.15;;;;;;;16.35;50.09;100380.94;1724990;82;21153;-73